Friday, September 19, 2014
09:55 UTC
  |  Log In   |  Register Free
Airport Search:

Pocono Mountains Municipal Airport
(KMPO)

Pocono Mountains Municipal Airport Diagram
No Airport Diagram Available

FAA data valid effective September 18, 2014 - November 13, 2014 (unless otherwise noted).

 
 
 
 
 
 
 
 
 
 
 
 
 
 

Current Aviation Weather for Pocono Mountains Municipal Airport (KMPO)

The most recent METAR observation for KMPO was updated at: 0911
METAR Summary (Translated METAR)
KMPO
190853Z AUTO 33004KT 10SM FEW047 BKN065 07/06 A3022 RMK AO2 SLP233 T00720056 53011 TSNO $
KAVP
190854Z AUTO 00000KT 10SM CLR 08/07 A3024 RMK AO2 SLP239 T00830067 53013
(19.6 nm NW from KMPO)
KHZL
190855Z AUTO 00000KT 10SM SCT007 08/07 A3026 RMK AO2
(29.3 nm SW from KMPO)
TAF Summary (Translated TAF)
KAVP
(19.6 nm NW from KMPO)
190825Z 1908/2006 03005KT P6SM SCT015 FM191400 02005KT P6SM SCT045 FM200400 12004KT P6SM BKN025
  Airport Weather Conditions for KMPO

 Current Weather at MPO
46° F
Fair
Northwest winds at 6.9 mph
MPO NOAA Radar

Pressure: 30.20 in
Humidity: 89%
Wind: Northwest at 6.9 MPH (6 KT)
Dew Point: 43.0°F
Visibility: 9.00 mi


Airport Weather Forecast for KMPO

Translated METAR and TAF for KMPO
Translated METAR for KMPO (0949 UTC 19 September 2014)
found at http://aviationweather.gov/adds/metars/
 
METAR text: KMPO 190853Z AUTO 33004KT 10SM FEW047 BKN065 07/06 A3022 RMK AO2 SLP233 T00720056 53011 TSNO $
Conditions at: KMPO (MT. POCONO , PA, US) observed 0853 UTC 19 September 2014
Temperature: 7.2°C (45°F)
Dewpoint: 5.6°C (42°F) [RH = 90%]
Pressure (altimeter): 30.22 inches Hg (1023.5 mb)
[Sea-level pressure: 1023.3 mb]
Winds: from the NNW (330 degrees) at 5 MPH (4 knots; 2.1 m/s)
Visibility: 10 or more miles (16+ km)
Ceiling: 6500 feet AGL
Clouds: few clouds at 4700 feet AGL
broken clouds at 6500 feet AGL
Weather:
SOME DATA ABOVE MAY BE INACCURATE!!!
"$" is an indication the sensor requires maintenance
Translated TAF for KMPO

There is no translated TAF available for this airport

Find All Airport Services Find A Hotel Find A Rental Car Find A Golf Course Find A Restaurant $100 Hamburger



FBO's on the Field
FBO Company Facility Photos Services Transportation Aviation Fuel Prices: Prices include tax
Catering Weather Repair Courtesy Rental Type 100LL JetA JetA+ MOGAS 8087
 
Pocono Mountains Municipal Airport Authority

This FBO has not yet been rated
FS:Phillips66
Last Updated: Sep-02
Login to update fuel prices
SS:
Contact Pocono Mountains Municipal Airport AuthorityMore FBO Information
 
Add another FBO Facility Photos Catering Weather Repair Courtesy Rental Type 100LL JetA JetA+ MOGAS 8087
Services Transportation Aviation Fuel Prices: Prices include tax


model-print
model-print
model-print
model-print